sensor_id;sensor_type;location;lat;lon;timestamp;temperature;humidity
38500;DHT22;24269;51.894;4.622;2022-07-10T00:00:33;14.40;99.90
38500;DHT22;24269;51.894;4.622;2022-07-10T00:03:01;14.30;99.90
38500;DHT22;24269;51.894;4.622;2022-07-10T00:05:27;14.30;99.90
38500;DHT22;24269;51.894;4.622;2022-07-10T00:07:53;14.30;99.90
38500;DHT22;24269;51.894;4.622;2022-07-10T00:10:19;14.30;99.90
38500;DHT22;24269;51.894;4.622;2022-07-10T00:12:46;14.30;99.90
38500;DHT22;24269;51.894;4.622;2022-07-10T00:15:13;14.30;99.90
38500;DHT22;24269;51.894;4.622;2022-07-10T00:17:38;14.20;99.90
38500;DHT22;24269;51.894;4.622;2022-07-10T00:20:05;14.30;99.90
38500;DHT22;24269;51.894;4.622;2022-07-10T00:22:33;14.20;99.90
38500;DHT22;24269;51.894;4.622;2022-07-10T00:25:01;14.20;99.90
38500;DHT22;24269;51.894;4.622;2022-07-10T00:27:26;14.20;99.90
38500;DHT22;24269;51.894;4.622;2022-07-10T00:29:52;14.20;99.90
38500;DHT22;24269;51.894;4.622;2022-07-10T00:32:17;14.20;99.90
38500;DHT22;24269;51.894;4.622;2022-07-10T00:34:43;14.20;99.90
38500;DHT22;24269;51.894;4.622;2022-07-10T00:37:09;14.20;99.90
38500;DHT22;24269;51.894;4.622;2022-07-10T00:39:34;14.20;99.90
38500;DHT22;24269;51.894;4.622;2022-07-10T00:42:10;14.20;99.90
38500;DHT22;24269;51.894;4.622;2022-07-10T00:44:37;14.10;99.90
38500;DHT22;24269;51.894;4.622;2022-07-10T00:47:04;14.20;99.90
38500;DHT22;24269;51.894;4.622;2022-07-10T00:49:33;14.20;99.90
38500;DHT22;24269;51.894;4.622;2022-07-10T00:52:00;14.20;99.90
38500;DHT22;24269;51.894;4.622;2022-07-10T00:54:27;14.20;99.90
38500;DHT22;24269;51.894;4.622;2022-07-10T00:56:53;14.20;99.90
38500;DHT22;24269;51.894;4.622;2022-07-10T00:59:19;14.20;99.90
38500;DHT22;24269;51.894;4.622;2022-07-10T01:01:47;14.20;99.90
38500;DHT22;24269;51.894;4.622;2022-07-10T01:04:14;14.20;99.90
38500;DHT22;24269;51.894;4.622;2022-07-10T01:06:39;14.20;99.90
38500;DHT22;24269;51.894;4.622;2022-07-10T01:09:05;14.10;99.90
38500;DHT22;24269;51.894;4.622;2022-07-10T01:11:33;14.10;99.90
38500;DHT22;24269;51.894;4.622;2022-07-10T01:14:00;14.10;99.90
38500;DHT22;24269;51.894;4.622;2022-07-10T01:16:26;14.10;99.90
38500;DHT22;24269;51.894;4.622;2022-07-10T01:18:52;14.00;99.90
38500;DHT22;24269;51.894;4.622;2022-07-10T01:21:31;14.00;99.90
38500;DHT22;24269;51.894;4.622;2022-07-10T01:23:58;14.00;99.90
38500;DHT22;24269;51.894;4.622;2022-07-10T01:26:24;14.00;99.90
38500;DHT22;24269;51.894;4.622;2022-07-10T01:28:52;14.00;99.90
38500;DHT22;24269;51.894;4.622;2022-07-10T01:31:28;13.90;99.90
38500;DHT22;24269;51.894;4.622;2022-07-10T01:33:55;13.90;99.90
38500;DHT22;24269;51.894;4.622;2022-07-10T01:36:21;13.90;99.90
38500;DHT22;24269;51.894;4.622;2022-07-10T01:38:47;13.90;99.90
38500;DHT22;24269;51.894;4.622;2022-07-10T01:41:13;14.00;99.90
38500;DHT22;24269;51.894;4.622;2022-07-10T01:43:39;14.00;99.90
38500;DHT22;24269;51.894;4.622;2022-07-10T01:46:10;13.90;99.90
38500;DHT22;24269;51.894;4.622;2022-07-10T01:48:37;14.00;99.90
38500;DHT22;24269;51.894;4.622;2022-07-10T01:51:03;13.90;99.90
38500;DHT22;24269;51.894;4.622;2022-07-10T01:53:29;13.90;99.90
38500;DHT22;24269;51.894;4.622;2022-07-10T01:55:55;13.90;99.90
38500;DHT22;24269;51.894;4.622;2022-07-10T01:58:21;13.90;99.90
38500;DHT22;24269;51.894;4.622;2022-07-10T02:00:46;13.90;99.90
38500;DHT22;24269;51.894;4.622;2022-07-10T02:03:12;13.90;99.90
38500;DHT22;24269;51.894;4.622;2022-07-10T02:05:56;13.80;99.90
38500;DHT22;24269;51.894;4.622;2022-07-10T02:08:22;13.80;99.90
38500;DHT22;24269;51.894;4.622;2022-07-10T02:10:48;13.80;99.90
38500;DHT22;24269;51.894;4.622;2022-07-10T02:13:14;13.80;99.90
38500;DHT22;24269;51.894;4.622;2022-07-10T02:15:42;13.80;99.90
38500;DHT22;24269;51.894;4.622;2022-07-10T02:18:08;13.80;99.90
38500;DHT22;24269;51.894;4.622;2022-07-10T02:20:34;13.80;99.90
38500;DHT22;24269;51.894;4.622;2022-07-10T02:23:00;13.80;99.90
38500;DHT22;24269;51.894;4.622;2022-07-10T02:25:26;13.80;99.90
38500;DHT22;24269;51.894;4.622;2022-07-10T02:27:52;13.80;99.90
38500;DHT22;24269;51.894;4.622;2022-07-10T02:30:17;13.70;99.90
38500;DHT22;24269;51.894;4.622;2022-07-10T02:32:43;13.80;99.90
38500;DHT22;24269;51.894;4.622;2022-07-10T02:35:09;13.80;99.90
38500;DHT22;24269;51.894;4.622;2022-07-10T02:37:35;13.80;99.90
38500;DHT22;24269;51.894;4.622;2022-07-10T02:40:00;13.80;99.90
38500;DHT22;24269;51.894;4.622;2022-07-10T02:42:26;13.90;99.90
38500;DHT22;24269;51.894;4.622;2022-07-10T02:44:52;13.90;99.90
38500;DHT22;24269;51.894;4.622;2022-07-10T02:47:17;13.90;99.90
38500;DHT22;24269;51.894;4.622;2022-07-10T02:49:43;14.00;99.90
38500;DHT22;24269;51.894;4.622;2022-07-10T02:52:09;14.00;99.90
38500;DHT22;24269;51.894;4.622;2022-07-10T02:54:35;14.10;99.90
38500;DHT22;24269;51.894;4.622;2022-07-10T02:57:00;14.10;99.90
38500;DHT22;24269;51.894;4.622;2022-07-10T02:59:26;14.10;99.90
38500;DHT22;24269;51.894;4.622;2022-07-10T03:01:52;14.10;99.90
38500;DHT22;24269;51.894;4.622;2022-07-10T03:04:17;14.10;99.90
38500;DHT22;24269;51.894;4.622;2022-07-10T03:06:43;14.10;99.90
38500;DHT22;24269;51.894;4.622;2022-07-10T03:09:09;14.10;99.90
38500;DHT22;24269;51.894;4.622;2022-07-10T03:11:34;14.10;99.90
38500;DHT22;24269;51.894;4.622;2022-07-10T03:14:00;14.10;99.90
38500;DHT22;24269;51.894;4.622;2022-07-10T03:16:26;14.10;99.90
38500;DHT22;24269;51.894;4.622;2022-07-10T03:18:51;14.20;99.90
38500;DHT22;24269;51.894;4.622;2022-07-10T03:21:17;14.20;99.90
38500;DHT22;24269;51.894;4.622;2022-07-10T03:23:43;14.30;99.90
38500;DHT22;24269;51.894;4.622;2022-07-10T03:26:08;14.30;99.90
38500;DHT22;24269;51.894;4.622;2022-07-10T03:28:34;14.40;99.90
38500;DHT22;24269;51.894;4.622;2022-07-10T03:31:01;14.50;99.90
38500;DHT22;24269;51.894;4.622;2022-07-10T03:33:27;14.50;99.90
38500;DHT22;24269;51.894;4.622;2022-07-10T03:35:54;14.60;99.90
38500;DHT22;24269;51.894;4.622;2022-07-10T03:38:20;14.60;99.90
38500;DHT22;24269;51.894;4.622;2022-07-10T03:40:45;14.70;99.90
38500;DHT22;24269;51.894;4.622;2022-07-10T03:43:14;14.70;99.90
38500;DHT22;24269;51.894;4.622;2022-07-10T03:45:40;14.70;99.90
38500;DHT22;24269;51.894;4.622;2022-07-10T03:48:05;14.70;99.90
38500;DHT22;24269;51.894;4.622;2022-07-10T03:50:31;14.70;99.90
38500;DHT22;24269;51.894;4.622;2022-07-10T03:52:56;14.80;99.90
38500;DHT22;24269;51.894;4.622;2022-07-10T03:55:22;14.80;99.90
38500;DHT22;24269;51.894;4.622;2022-07-10T03:57:48;14.80;99.90
38500;DHT22;24269;51.894;4.622;2022-07-10T04:00:21;14.90;99.90
38500;DHT22;24269;51.894;4.622;2022-07-10T04:05:22;14.90;99.90
38500;DHT22;24269;51.894;4.622;2022-07-10T04:07:47;15.00;99.90
38500;DHT22;24269;51.894;4.622;2022-07-10T04:10:13;15.00;99.90
38500;DHT22;24269;51.894;4.622;2022-07-10T04:12:39;15.00;99.90
38500;DHT22;24269;51.894;4.622;2022-07-10T04:15:05;15.00;99.90
38500;DHT22;24269;51.894;4.622;2022-07-10T04:17:30;15.10;99.90
38500;DHT22;24269;51.894;4.622;2022-07-10T04:19:58;15.10;99.90
38500;DHT22;24269;51.894;4.622;2022-07-10T04:22:24;15.20;99.90
38500;DHT22;24269;51.894;4.622;2022-07-10T04:24:50;15.20;99.90
38500;DHT22;24269;51.894;4.622;2022-07-10T04:27:16;15.30;99.90
38500;DHT22;24269;51.894;4.622;2022-07-10T04:29:42;15.30;99.90
38500;DHT22;24269;51.894;4.622;2022-07-10T04:32:08;15.30;99.90
38500;DHT22;24269;51.894;4.622;2022-07-10T04:34:34;15.40;99.90
38500;DHT22;24269;51.894;4.622;2022-07-10T04:37:00;15.40;99.90
38500;DHT22;24269;51.894;4.622;2022-07-10T04:39:25;15.50;99.90
38500;DHT22;24269;51.894;4.622;2022-07-10T04:41:51;15.50;99.90
38500;DHT22;24269;51.894;4.622;2022-07-10T04:44:18;15.50;99.90
38500;DHT22;24269;51.894;4.622;2022-07-10T04:46:43;15.60;99.90
38500;DHT22;24269;51.894;4.622;2022-07-10T04:49:09;15.60;99.90
38500;DHT22;24269;51.894;4.622;2022-07-10T04:51:35;15.60;99.90
38500;DHT22;24269;51.894;4.622;2022-07-10T04:54:01;15.60;99.90
38500;DHT22;24269;51.894;4.622;2022-07-10T04:56:26;15.70;99.90
38500;DHT22;24269;51.894;4.622;2022-07-10T04:58:52;15.70;99.90
38500;DHT22;24269;51.894;4.622;2022-07-10T05:01:18;15.80;99.90
38500;DHT22;24269;51.894;4.622;2022-07-10T05:03:44;15.80;99.90
38500;DHT22;24269;51.894;4.622;2022-07-10T05:06:09;15.80;99.90
38500;DHT22;24269;51.894;4.622;2022-07-10T05:08:35;15.80;99.90
38500;DHT22;24269;51.894;4.622;2022-07-10T05:11:00;15.80;99.90
38500;DHT22;24269;51.894;4.622;2022-07-10T05:13:26;15.80;99.90
38500;DHT22;24269;51.894;4.622;2022-07-10T05:15:52;15.90;99.90
38500;DHT22;24269;51.894;4.622;2022-07-10T05:18:18;15.90;99.90
38500;DHT22;24269;51.894;4.622;2022-07-10T05:20:43;16.00;99.90
38500;DHT22;24269;51.894;4.622;2022-07-10T05:23:10;16.00;99.90
38500;DHT22;24269;51.894;4.622;2022-07-10T05:25:37;16.10;99.90
38500;DHT22;24269;51.894;4.622;2022-07-10T05:28:06;16.20;99.90
38500;DHT22;24269;51.894;4.622;2022-07-10T05:30:32;16.20;99.90
38500;DHT22;24269;51.894;4.622;2022-07-10T05:32:58;16.20;99.90
38500;DHT22;24269;51.894;4.622;2022-07-10T05:35:24;16.30;99.90
38500;DHT22;24269;51.894;4.622;2022-07-10T05:37:49;16.30;99.90
38500;DHT22;24269;51.894;4.622;2022-07-10T05:40:15;16.40;99.90
38500;DHT22;24269;51.894;4.622;2022-07-10T05:42:41;16.60;99.90
38500;DHT22;24269;51.894;4.622;2022-07-10T05:45:07;16.60;99.90
38500;DHT22;24269;51.894;4.622;2022-07-10T05:47:33;16.70;99.90
38500;DHT22;24269;51.894;4.622;2022-07-10T05:49:59;16.80;99.90
38500;DHT22;24269;51.894;4.622;2022-07-10T05:52:24;16.90;99.90
38500;DHT22;24269;51.894;4.622;2022-07-10T05:54:50;16.90;99.90
38500;DHT22;24269;51.894;4.622;2022-07-10T05:57:16;16.90;99.90
38500;DHT22;24269;51.894;4.622;2022-07-10T05:59:42;17.00;99.90
38500;DHT22;24269;51.894;4.622;2022-07-10T06:02:08;17.00;99.90
38500;DHT22;24269;51.894;4.622;2022-07-10T06:04:34;17.10;99.90
38500;DHT22;24269;51.894;4.622;2022-07-10T06:06:59;17.10;99.90
38500;DHT22;24269;51.894;4.622;2022-07-10T06:09:25;17.20;99.90
38500;DHT22;24269;51.894;4.622;2022-07-10T06:11:51;17.20;99.90
38500;DHT22;24269;51.894;4.622;2022-07-10T06:14:16;17.40;99.90
38500;DHT22;24269;51.894;4.622;2022-07-10T06:16:42;17.40;99.90
38500;DHT22;24269;51.894;4.622;2022-07-10T06:19:07;17.50;99.90
38500;DHT22;24269;51.894;4.622;2022-07-10T06:21:33;17.50;99.90
38500;DHT22;24269;51.894;4.622;2022-07-10T06:23:59;17.60;99.90
38500;DHT22;24269;51.894;4.622;2022-07-10T06:26:25;17.70;99.90
38500;DHT22;24269;51.894;4.622;2022-07-10T06:28:50;17.70;99.90
38500;DHT22;24269;51.894;4.622;2022-07-10T06:31:16;17.80;99.90
38500;DHT22;24269;51.894;4.622;2022-07-10T06:33:42;17.80;99.90
38500;DHT22;24269;51.894;4.622;2022-07-10T06:36:08;17.80;99.90
38500;DHT22;24269;51.894;4.622;2022-07-10T06:38:34;17.90;99.90
38500;DHT22;24269;51.894;4.622;2022-07-10T06:40:59;17.90;99.90
38500;DHT22;24269;51.894;4.622;2022-07-10T06:43:25;17.90;99.90
38500;DHT22;24269;51.894;4.622;2022-07-10T06:45:51;18.00;99.90
38500;DHT22;24269;51.894;4.622;2022-07-10T06:48:17;18.10;99.90
38500;DHT22;24269;51.894;4.622;2022-07-10T06:50:42;18.10;99.90
38500;DHT22;24269;51.894;4.622;2022-07-10T06:53:08;18.20;99.90
38500;DHT22;24269;51.894;4.622;2022-07-10T06:55:34;18.30;99.90
38500;DHT22;24269;51.894;4.622;2022-07-10T06:58:00;18.30;99.90
38500;DHT22;24269;51.894;4.622;2022-07-10T07:00:27;18.40;99.90
38500;DHT22;24269;51.894;4.622;2022-07-10T07:02:53;18.60;99.90
38500;DHT22;24269;51.894;4.622;2022-07-10T07:05:20;18.60;99.90
38500;DHT22;24269;51.894;4.622;2022-07-10T07:07:45;18.70;99.90
38500;DHT22;24269;51.894;4.622;2022-07-10T07:10:11;18.80;99.90
38500;DHT22;24269;51.894;4.622;2022-07-10T07:12:37;18.80;99.90
38500;DHT22;24269;51.894;4.622;2022-07-10T07:15:04;18.90;99.90
38500;DHT22;24269;51.894;4.622;2022-07-10T07:17:30;18.90;99.90
38500;DHT22;24269;51.894;4.622;2022-07-10T07:20:12;18.90;99.90
38500;DHT22;24269;51.894;4.622;2022-07-10T07:22:56;19.00;99.90
38500;DHT22;24269;51.894;4.622;2022-07-10T07:25:40;19.10;99.90
38500;DHT22;24269;51.894;4.622;2022-07-10T07:28:12;19.00;99.90
38500;DHT22;24269;51.894;4.622;2022-07-10T07:30:38;19.10;99.90
38500;DHT22;24269;51.894;4.622;2022-07-10T07:33:03;19.10;99.90
38500;DHT22;24269;51.894;4.622;2022-07-10T07:35:29;19.20;99.90
38500;DHT22;24269;51.894;4.622;2022-07-10T07:37:55;19.20;99.90
38500;DHT22;24269;51.894;4.622;2022-07-10T07:40:21;19.20;99.90
38500;DHT22;24269;51.894;4.622;2022-07-10T07:42:49;19.40;99.90
38500;DHT22;24269;51.894;4.622;2022-07-10T07:45:15;19.30;99.90
38500;DHT22;24269;51.894;4.622;2022-07-10T07:47:45;19.40;99.90
38500;DHT22;24269;51.894;4.622;2022-07-10T07:50:12;19.60;99.90
38500;DHT22;24269;51.894;4.622;2022-07-10T07:52:38;19.70;99.90
38500;DHT22;24269;51.894;4.622;2022-07-10T07:55:04;19.80;99.90
38500;DHT22;24269;51.894;4.622;2022-07-10T07:57:30;19.90;99.90
38500;DHT22;24269;51.894;4.622;2022-07-10T07:59:55;20.00;99.90
38500;DHT22;24269;51.894;4.622;2022-07-10T08:02:21;20.10;99.90
38500;DHT22;24269;51.894;4.622;2022-07-10T08:04:47;20.10;99.90
38500;DHT22;24269;51.894;4.622;2022-07-10T08:07:13;20.20;99.90
38500;DHT22;24269;51.894;4.622;2022-07-10T08:09:39;20.20;99.90
38500;DHT22;24269;51.894;4.622;2022-07-10T08:12:05;20.20;99.90
38500;DHT22;24269;51.894;4.622;2022-07-10T08:14:32;20.10;99.90
38500;DHT22;24269;51.894;4.622;2022-07-10T08:16:57;20.00;99.90
38500;DHT22;24269;51.894;4.622;2022-07-10T08:19:23;20.00;99.90
38500;DHT22;24269;51.894;4.622;2022-07-10T08:21:49;20.10;99.90
38500;DHT22;24269;51.894;4.622;2022-07-10T08:24:14;20.20;99.90
38500;DHT22;24269;51.894;4.622;2022-07-10T08:26:40;20.30;99.90
38500;DHT22;24269;51.894;4.622;2022-07-10T08:29:06;20.50;99.90
38500;DHT22;24269;51.894;4.622;2022-07-10T08:31:31;20.50;99.90
38500;DHT22;24269;51.894;4.622;2022-07-10T08:33:59;20.60;99.90
38500;DHT22;24269;51.894;4.622;2022-07-10T08:36:25;20.60;99.90
38500;DHT22;24269;51.894;4.622;2022-07-10T08:38:52;20.60;99.90
38500;DHT22;24269;51.894;4.622;2022-07-10T08:41:22;20.60;99.90
38500;DHT22;24269;51.894;4.622;2022-07-10T08:43:49;20.80;99.90
38500;DHT22;24269;51.894;4.622;2022-07-10T08:46:16;20.80;99.90
38500;DHT22;24269;51.894;4.622;2022-07-10T08:48:46;20.80;99.90
38500;DHT22;24269;51.894;4.622;2022-07-10T08:51:36;20.80;99.90
38500;DHT22;24269;51.894;4.622;2022-07-10T08:54:04;20.90;99.90
38500;DHT22;24269;51.894;4.622;2022-07-10T08:56:31;21.20;99.90
38500;DHT22;24269;51.894;4.622;2022-07-10T08:58:58;21.40;99.90
38500;DHT22;24269;51.894;4.622;2022-07-10T09:01:24;21.40;99.90
38500;DHT22;24269;51.894;4.622;2022-07-10T09:03:50;21.60;99.90
38500;DHT22;24269;51.894;4.622;2022-07-10T09:06:16;21.40;99.90
38500;DHT22;24269;51.894;4.622;2022-07-10T09:09:18;21.60;99.90
38500;DHT22;24269;51.894;4.622;2022-07-10T09:11:44;21.70;99.90
38500;DHT22;24269;51.894;4.622;2022-07-10T09:14:19;21.80;99.90
38500;DHT22;24269;51.894;4.622;2022-07-10T09:16:50;22.10;99.90
38500;DHT22;24269;51.894;4.622;2022-07-10T09:22:01;22.50;99.90
38500;DHT22;24269;51.894;4.622;2022-07-10T09:24:41;22.40;99.90
38500;DHT22;24269;51.894;4.622;2022-07-10T09:27:08;22.50;99.90
38500;DHT22;24269;51.894;4.622;2022-07-10T09:29:49;22.50;99.90
38500;DHT22;24269;51.894;4.622;2022-07-10T09:32:17;22.70;99.90
38500;DHT22;24269;51.894;4.622;2022-07-10T09:34:45;22.90;99.90
38500;DHT22;24269;51.894;4.622;2022-07-10T09:37:29;23.00;99.90
38500;DHT22;24269;51.894;4.622;2022-07-10T09:40:03;23.00;99.90
38500;DHT22;24269;51.894;4.622;2022-07-10T09:42:40;23.30;99.90
38500;DHT22;24269;51.894;4.622;2022-07-10T09:47:39;23.50;99.90
38500;DHT22;24269;51.894;4.622;2022-07-10T09:50:32;23.60;99.90
38500;DHT22;24269;51.894;4.622;2022-07-10T09:53:08;23.40;99.90
38500;DHT22;24269;51.894;4.622;2022-07-10T09:55:36;23.40;99.90
38500;DHT22;24269;51.894;4.622;2022-07-10T09:58:04;23.30;99.90
38500;DHT22;24269;51.894;4.622;2022-07-10T10:00:31;23.30;99.90
38500;DHT22;24269;51.894;4.622;2022-07-10T10:03:06;23.20;99.90
38500;DHT22;24269;51.894;4.622;2022-07-10T10:05:55;23.20;99.90
38500;DHT22;24269;51.894;4.622;2022-07-10T10:08:44;23.30;99.90
38500;DHT22;24269;51.894;4.622;2022-07-10T10:11:14;23.40;99.90
38500;DHT22;24269;51.894;4.622;2022-07-10T10:13:41;23.40;99.90
38500;DHT22;24269;51.894;4.622;2022-07-10T10:16:08;23.60;99.90
38500;DHT22;24269;51.894;4.622;2022-07-10T10:18:36;23.80;99.90
38500;DHT22;24269;51.894;4.622;2022-07-10T10:21:02;24.00;99.90
38500;DHT22;24269;51.894;4.622;2022-07-10T10:23:32;24.10;99.90
38500;DHT22;24269;51.894;4.622;2022-07-10T10:25:59;24.30;99.90
38500;DHT22;24269;51.894;4.622;2022-07-10T10:28:25;24.30;99.90
38500;DHT22;24269;51.894;4.622;2022-07-10T10:30:56;24.30;99.90
38500;DHT22;24269;51.894;4.622;2022-07-10T10:36:02;24.00;99.90
38500;DHT22;24269;51.894;4.622;2022-07-10T10:41:27;24.20;99.90
38500;DHT22;24269;51.894;4.622;2022-07-10T10:49:20;24.60;99.90
38500;DHT22;24269;51.894;4.622;2022-07-10T10:51:58;24.60;99.90
38500;DHT22;24269;51.894;4.622;2022-07-10T10:54:24;24.50;99.90
38500;DHT22;24269;51.894;4.622;2022-07-10T10:57:16;24.60;99.90
38500;DHT22;24269;51.894;4.622;2022-07-10T10:59:48;24.70;99.90
38500;DHT22;24269;51.894;4.622;2022-07-10T11:04:49;24.90;99.90
38500;DHT22;24269;51.894;4.622;2022-07-10T11:13:01;25.20;99.90
38500;DHT22;24269;51.894;4.622;2022-07-10T11:15:29;24.90;99.90
38500;DHT22;24269;51.894;4.622;2022-07-10T11:20:38;24.80;99.90
38500;DHT22;24269;51.894;4.622;2022-07-10T11:26:08;24.70;99.90
38500;DHT22;24269;51.894;4.622;2022-07-10T11:31:09;24.30;99.90
38500;DHT22;24269;51.894;4.622;2022-07-10T11:33:42;24.30;99.90
38500;DHT22;24269;51.894;4.622;2022-07-10T11:36:19;24.50;99.90
38500;DHT22;24269;51.894;4.622;2022-07-10T11:38:47;24.70;99.90
38500;DHT22;24269;51.894;4.622;2022-07-10T11:41:18;24.80;99.90
38500;DHT22;24269;51.894;4.622;2022-07-10T11:43:57;25.10;99.90
38500;DHT22;24269;51.894;4.622;2022-07-10T11:46:25;25.10;99.90
38500;DHT22;24269;51.894;4.622;2022-07-10T11:48:52;25.30;99.90
38500;DHT22;24269;51.894;4.622;2022-07-10T11:54:09;24.90;99.90
38500;DHT22;24269;51.894;4.622;2022-07-10T11:56:41;25.10;99.90
38500;DHT22;24269;51.894;4.622;2022-07-10T11:59:09;25.10;99.90
38500;DHT22;24269;51.894;4.622;2022-07-10T12:01:44;25.00;99.90
38500;DHT22;24269;51.894;4.622;2022-07-10T12:04:13;25.10;99.90
38500;DHT22;24269;51.894;4.622;2022-07-10T12:06:40;25.10;99.90
38500;DHT22;24269;51.894;4.622;2022-07-10T12:09:08;25.10;99.90
38500;DHT22;24269;51.894;4.622;2022-07-10T12:11:35;25.00;99.90
38500;DHT22;24269;51.894;4.622;2022-07-10T12:14:14;25.00;99.90
38500;DHT22;24269;51.894;4.622;2022-07-10T12:16:42;25.00;99.90
38500;DHT22;24269;51.894;4.622;2022-07-10T12:19:10;25.20;99.90
38500;DHT22;24269;51.894;4.622;2022-07-10T12:21:36;25.60;99.90
38500;DHT22;24269;51.894;4.622;2022-07-10T12:24:03;25.80;99.70
38500;DHT22;24269;51.894;4.622;2022-07-10T12:26:37;25.80;99.50
38500;DHT22;24269;51.894;4.622;2022-07-10T12:29:03;25.80;99.60
38500;DHT22;24269;51.894;4.622;2022-07-10T12:31:32;25.90;99.40
38500;DHT22;24269;51.894;4.622;2022-07-10T12:34:00;25.90;99.80
38500;DHT22;24269;51.894;4.622;2022-07-10T12:36:53;26.20;99.70
38500;DHT22;24269;51.894;4.622;2022-07-10T12:39:23;26.50;97.20
38500;DHT22;24269;51.894;4.622;2022-07-10T12:42:03;26.70;97.10
38500;DHT22;24269;51.894;4.622;2022-07-10T12:44:40;26.70;96.70
38500;DHT22;24269;51.894;4.622;2022-07-10T12:47:10;26.80;97.10
38500;DHT22;24269;51.894;4.622;2022-07-10T12:49:57;27.00;96.40
38500;DHT22;24269;51.894;4.622;2022-07-10T12:52:38;26.70;96.20
38500;DHT22;24269;51.894;4.622;2022-07-10T12:57:55;26.90;96.60
38500;DHT22;24269;51.894;4.622;2022-07-10T13:02:48;26.60;96.50
38500;DHT22;24269;51.894;4.622;2022-07-10T13:05:45;26.50;96.10
38500;DHT22;24269;51.894;4.622;2022-07-10T13:08:19;26.80;96.10
38500;DHT22;24269;51.894;4.622;2022-07-10T13:10:51;27.20;95.80
38500;DHT22;24269;51.894;4.622;2022-07-10T13:13:17;27.50;95.40
38500;DHT22;24269;51.894;4.622;2022-07-10T13:15:44;27.60;95.50
38500;DHT22;24269;51.894;4.622;2022-07-10T13:18:15;27.70;95.20
38500;DHT22;24269;51.894;4.622;2022-07-10T13:20:46;27.70;94.50
38500;DHT22;24269;51.894;4.622;2022-07-10T13:23:11;27.70;94.60
38500;DHT22;24269;51.894;4.622;2022-07-10T13:25:38;27.80;94.60
38500;DHT22;24269;51.894;4.622;2022-07-10T13:28:05;28.00;94.60
38500;DHT22;24269;51.894;4.622;2022-07-10T13:30:31;28.00;94.20
38500;DHT22;24269;51.894;4.622;2022-07-10T13:32:57;27.70;94.60
38500;DHT22;24269;51.894;4.622;2022-07-10T13:35:22;27.40;95.10
38500;DHT22;24269;51.894;4.622;2022-07-10T13:37:48;27.40;95.10
38500;DHT22;24269;51.894;4.622;2022-07-10T13:40:14;27.40;95.50
38500;DHT22;24269;51.894;4.622;2022-07-10T13:42:40;27.40;95.60
38500;DHT22;24269;51.894;4.622;2022-07-10T13:45:06;27.40;95.90
38500;DHT22;24269;51.894;4.622;2022-07-10T13:47:33;27.40;95.60
38500;DHT22;24269;51.894;4.622;2022-07-10T13:49:59;27.40;95.80
38500;DHT22;24269;51.894;4.622;2022-07-10T13:52:25;26.80;96.80
38500;DHT22;24269;51.894;4.622;2022-07-10T13:54:50;27.00;97.10
38500;DHT22;24269;51.894;4.622;2022-07-10T13:57:16;27.40;96.80
38500;DHT22;24269;51.894;4.622;2022-07-10T13:59:42;27.50;96.80
38500;DHT22;24269;51.894;4.622;2022-07-10T14:02:08;27.60;96.50
38500;DHT22;24269;51.894;4.622;2022-07-10T14:04:33;27.50;97.10
38500;DHT22;24269;51.894;4.622;2022-07-10T14:06:59;27.50;96.90
38500;DHT22;24269;51.894;4.622;2022-07-10T14:09:25;27.60;96.80
38500;DHT22;24269;51.894;4.622;2022-07-10T14:11:51;27.70;96.90
38500;DHT22;24269;51.894;4.622;2022-07-10T14:14:17;27.80;96.80
38500;DHT22;24269;51.894;4.622;2022-07-10T14:16:42;28.00;96.60
38500;DHT22;24269;51.894;4.622;2022-07-10T14:19:09;28.60;95.80
38500;DHT22;24269;51.894;4.622;2022-07-10T14:21:34;29.00;94.90
38500;DHT22;24269;51.894;4.622;2022-07-10T14:24:02;29.20;94.70
38500;DHT22;24269;51.894;4.622;2022-07-10T14:26:28;29.30;95.20
38500;DHT22;24269;51.894;4.622;2022-07-10T14:28:54;29.20;94.70
38500;DHT22;24269;51.894;4.622;2022-07-10T14:31:20;29.30;95.10
38500;DHT22;24269;51.894;4.622;2022-07-10T14:33:46;28.80;95.60
38500;DHT22;24269;51.894;4.622;2022-07-10T14:36:12;28.70;95.90
38500;DHT22;24269;51.894;4.622;2022-07-10T14:38:37;28.30;96.30
38500;DHT22;24269;51.894;4.622;2022-07-10T14:41:03;28.20;95.90
38500;DHT22;24269;51.894;4.622;2022-07-10T14:43:31;28.20;96.20
38500;DHT22;24269;51.894;4.622;2022-07-10T14:45:59;28.30;96.20
38500;DHT22;24269;51.894;4.622;2022-07-10T14:48:25;28.50;96.20
38500;DHT22;24269;51.894;4.622;2022-07-10T14:50:51;28.60;96.20
38500;DHT22;24269;51.894;4.622;2022-07-10T14:53:17;28.80;95.80
38500;DHT22;24269;51.894;4.622;2022-07-10T14:55:42;29.00;96.70
38500;DHT22;24269;51.894;4.622;2022-07-10T14:58:08;29.50;95.50
38500;DHT22;24269;51.894;4.622;2022-07-10T15:00:34;29.80;95.00
38500;DHT22;24269;51.894;4.622;2022-07-10T15:03:00;30.50;93.70
38500;DHT22;24269;51.894;4.622;2022-07-10T15:05:26;30.40;93.50
38500;DHT22;24269;51.894;4.622;2022-07-10T15:07:51;29.60;93.50
38500;DHT22;24269;51.894;4.622;2022-07-10T15:10:17;29.40;94.30
38500;DHT22;24269;51.894;4.622;2022-07-10T15:12:44;29.00;94.50
38500;DHT22;24269;51.894;4.622;2022-07-10T15:15:11;28.40;95.10
38500;DHT22;24269;51.894;4.622;2022-07-10T15:17:37;28.30;95.90
38500;DHT22;24269;51.894;4.622;2022-07-10T15:20:03;28.30;96.30
38500;DHT22;24269;51.894;4.622;2022-07-10T15:22:29;28.10;96.30
38500;DHT22;24269;51.894;4.622;2022-07-10T15:24:56;28.10;96.00
38500;DHT22;24269;51.894;4.622;2022-07-10T15:27:22;27.70;96.40
38500;DHT22;24269;51.894;4.622;2022-07-10T15:29:48;27.60;96.60
38500;DHT22;24269;51.894;4.622;2022-07-10T15:32:13;27.20;96.80
38500;DHT22;24269;51.894;4.622;2022-07-10T15:34:39;27.30;97.30
38500;DHT22;24269;51.894;4.622;2022-07-10T15:37:04;27.50;97.20
38500;DHT22;24269;51.894;4.622;2022-07-10T15:39:30;27.60;96.60
38500;DHT22;24269;51.894;4.622;2022-07-10T15:42:10;27.60;96.60
38500;DHT22;24269;51.894;4.622;2022-07-10T15:44:36;27.40;96.80
38500;DHT22;24269;51.894;4.622;2022-07-10T15:47:05;27.00;97.10
38500;DHT22;24269;51.894;4.622;2022-07-10T15:49:31;26.70;97.30
38500;DHT22;24269;51.894;4.622;2022-07-10T15:51:57;26.60;98.20
38500;DHT22;24269;51.894;4.622;2022-07-10T15:54:25;26.10;98.30
38500;DHT22;24269;51.894;4.622;2022-07-10T15:56:51;26.10;98.90
38500;DHT22;24269;51.894;4.622;2022-07-10T15:59:17;26.10;98.90
38500;DHT22;24269;51.894;4.622;2022-07-10T16:01:51;26.20;99.00
38500;DHT22;24269;51.894;4.622;2022-07-10T16:04:18;25.70;99.90
38500;DHT22;24269;51.894;4.622;2022-07-10T16:06:44;25.60;99.90
38500;DHT22;24269;51.894;4.622;2022-07-10T16:09:09;25.50;99.90
38500;DHT22;24269;51.894;4.622;2022-07-10T16:11:35;25.30;99.90
38500;DHT22;24269;51.894;4.622;2022-07-10T16:14:00;25.00;99.90
38500;DHT22;24269;51.894;4.622;2022-07-10T16:16:26;24.90;99.90